createdAt,value
2023-01-21T00:01:06.031Z,22.73
2023-01-21T00:03:35.940Z,24.20
2023-01-21T00:06:03.079Z,27.50
2023-01-21T00:08:29.881Z,24.33
2023-01-21T00:10:56.663Z,21.73
2023-01-21T00:13:23.501Z,25.77
2023-01-21T00:15:50.347Z,22.53
2023-01-21T00:18:19.365Z,24.17
2023-01-21T00:20:46.417Z,20.23
2023-01-21T00:23:15.420Z,19.40
2023-01-21T00:25:42.185Z,19.47
2023-01-21T00:28:08.963Z,21.53
2023-01-21T00:30:36.905Z,17.27
2023-01-21T00:33:04.303Z,21.70
2023-01-21T00:35:31.135Z,21.50
2023-01-21T00:38:00.851Z,17.13
2023-01-21T00:40:27.599Z,17.80
2023-01-21T00:42:54.356Z,17.13
2023-01-21T00:45:21.150Z,17.03
2023-01-21T00:47:47.934Z,16.43
2023-01-21T00:50:14.937Z,15.07
2023-01-21T00:52:42.021Z,16.27
2023-01-21T00:55:09.107Z,17.90
2023-01-21T00:57:35.912Z,14.70
2023-01-21T01:00:05.431Z,17.23
2023-01-21T01:02:34.368Z,15.27
2023-01-21T01:05:01.125Z,17.63
2023-01-21T01:07:30.132Z,13.90
2023-01-21T01:09:56.917Z,15.13
2023-01-21T01:12:25.908Z,13.37
2023-01-21T01:14:52.682Z,11.63
2023-01-21T01:17:19.451Z,13.50
2023-01-21T01:19:46.327Z,11.10
2023-01-21T01:22:13.191Z,12.33
2023-01-21T01:24:39.990Z,12.50
2023-01-21T01:27:06.746Z,11.33
2023-01-21T01:29:33.507Z,10.93
2023-01-21T01:32:00.288Z,12.20
2023-01-21T01:34:29.165Z,10.10
2023-01-21T01:36:58.396Z,12.30
2023-01-21T01:39:25.253Z,10.77
2023-01-21T01:41:52.056Z,12.13
2023-01-21T01:44:56.213Z,12.03
2023-01-21T01:47:36.098Z,10.90
2023-01-21T01:50:05.463Z,9.80
2023-01-21T01:52:32.257Z,12.70
2023-01-21T01:55:00.428Z,12.43
2023-01-21T01:57:34.323Z,11.63
2023-01-21T02:00:02.769Z,11.63
2023-01-21T02:02:29.657Z,10.83
2023-01-21T02:05:02.489Z,14.87
2023-01-21T02:07:30.213Z,13.73
2023-01-21T02:09:56.986Z,12.07
2023-01-21T02:12:23.787Z,10.40
2023-01-21T02:14:50.589Z,10.80
2023-01-21T02:17:36.139Z,10.67
2023-01-21T02:20:46.804Z,9.90
2023-01-21T02:23:26.332Z,11.00
2023-01-21T02:26:02.586Z,9.87
2023-01-21T02:29:02.736Z,10.03
2023-01-21T02:31:52.492Z,12.33
2023-01-21T02:34:32.181Z,10.40
2023-01-21T02:37:06.137Z,11.57
2023-01-21T02:39:46.457Z,10.93
2023-01-21T02:42:25.055Z,10.13
2023-01-21T02:44:57.171Z,9.30
2023-01-21T02:47:28.543Z,9.47
2023-01-21T02:50:03.000Z,11.13
2023-01-21T02:52:32.429Z,8.20
2023-01-21T02:55:03.518Z,9.63
2023-01-21T02:57:45.401Z,10.33
2023-01-21T03:00:26.521Z,10.23
2023-01-21T03:03:03.519Z,10.57
2023-01-21T03:05:30.330Z,11.00
2023-01-21T03:08:02.705Z,12.50
2023-01-21T03:10:43.061Z,11.03
2023-01-21T03:13:39.584Z,9.80
2023-01-21T03:16:27.609Z,8.37
2023-01-21T03:18:54.493Z,10.87
2023-01-21T03:21:24.284Z,9.10
2023-01-21T03:23:53.581Z,9.83
2023-01-21T03:26:41.749Z,9.93
2023-01-21T03:29:15.138Z,8.33
2023-01-21T03:31:45.417Z,10.30
2023-01-21T03:34:13.045Z,9.33
2023-01-21T03:36:45.681Z,7.50
2023-01-21T03:39:22.530Z,6.50
2023-01-21T03:41:49.395Z,7.80
2023-01-21T03:44:16.158Z,8.47
2023-01-21T03:47:03.983Z,8.77
2023-01-21T03:49:52.203Z,7.90
2023-01-21T03:52:21.865Z,7.43
2023-01-21T03:54:49.193Z,8.33
2023-01-21T03:57:16.098Z,6.60
2023-01-21T03:59:43.042Z,8.00
2023-01-21T04:02:10.381Z,7.47
2023-01-21T04:04:37.220Z,9.43
2023-01-21T04:07:06.460Z,7.30
2023-01-21T04:09:35.504Z,8.23
2023-01-21T04:12:02.353Z,5.70
2023-01-21T04:14:29.246Z,5.57
2023-01-21T04:16:56.372Z,5.83
2023-01-21T04:19:23.324Z,5.83
2023-01-21T04:21:52.365Z,5.87
2023-01-21T04:24:19.155Z,5.27
2023-01-21T04:26:45.968Z,6.50
2023-01-21T04:29:12.724Z,6.73
2023-01-21T04:31:39.609Z,5.50
2023-01-21T04:34:06.459Z,8.00
2023-01-21T04:36:33.279Z,5.97
2023-01-21T04:39:03.129Z,5.30
2023-01-21T04:41:29.976Z,4.23
2023-01-21T04:43:59.292Z,5.67
2023-01-21T04:46:26.073Z,4.17
2023-01-21T04:48:57.591Z,4.07
2023-01-21T04:51:24.414Z,6.17
2023-01-21T04:53:51.190Z,3.90
2023-01-21T04:56:22.636Z,3.60
2023-01-21T04:58:49.411Z,4.60
2023-01-21T05:01:16.264Z,3.60
2023-01-21T05:03:43.072Z,3.57
2023-01-21T05:06:09.843Z,3.67
2023-01-21T05:08:39.152Z,3.90
2023-01-21T05:11:08.503Z,4.10
2023-01-21T05:13:35.325Z,3.07
2023-01-21T05:16:10.034Z,3.27
2023-01-21T05:18:40.851Z,4.63
2023-01-21T05:21:07.818Z,3.27
2023-01-21T05:23:37.145Z,2.90
2023-01-21T05:26:06.303Z,3.27
2023-01-21T05:28:35.623Z,3.67
2023-01-21T05:31:03.292Z,2.73
2023-01-21T05:33:33.733Z,6.83
2023-01-21T05:36:03.369Z,3.93
2023-01-21T05:38:30.209Z,2.83
2023-01-21T05:41:05.446Z,2.43
2023-01-21T05:43:32.255Z,3.27
2023-01-21T05:46:01.268Z,5.07
2023-01-21T05:48:29.557Z,2.60
2023-01-21T05:50:58.249Z,2.93
2023-01-21T05:53:27.753Z,2.77
2023-01-21T05:55:59.575Z,2.60
2023-01-21T05:58:29.480Z,3.07
2023-01-21T06:00:59.126Z,3.60
2023-01-21T06:03:26.082Z,2.23
2023-01-21T06:05:52.958Z,3.87
2023-01-21T06:08:21.999Z,2.10
2023-01-21T06:10:48.789Z,3.27
2023-01-21T06:13:15.895Z,2.83
2023-01-21T06:15:42.848Z,2.13
2023-01-21T06:18:09.665Z,2.37
2023-01-21T06:20:36.539Z,2.80
2023-01-21T06:23:08.754Z,2.50
2023-01-21T06:25:35.564Z,5.17
2023-01-21T06:28:07.124Z,2.67
2023-01-21T06:30:33.874Z,2.50
2023-01-21T06:33:00.652Z,4.23
2023-01-21T06:35:29.928Z,7.17
2023-01-21T06:37:56.677Z,3.20
2023-01-21T06:40:26.373Z,2.97
2023-01-21T06:42:54.289Z,2.73
2023-01-21T06:45:21.095Z,3.00
2023-01-21T06:47:47.950Z,3.90
2023-01-21T06:50:19.366Z,4.00
2023-01-21T06:52:47.288Z,3.10
2023-01-21T06:55:14.383Z,2.87
2023-01-21T06:57:41.209Z,3.43
2023-01-21T07:00:09.600Z,3.73
2023-01-21T07:02:36.414Z,2.57
2023-01-21T07:05:03.926Z,3.60
2023-01-21T07:07:30.714Z,2.53
2023-01-21T07:09:57.502Z,2.57
2023-01-21T07:12:26.861Z,2.50
2023-01-21T07:14:53.663Z,2.50
2023-01-21T07:17:23.233Z,2.87
2023-01-21T07:19:50.068Z,3.17
2023-01-21T07:22:16.838Z,3.60
2023-01-21T07:24:43.646Z,2.57
2023-01-21T07:27:10.823Z,3.40
2023-01-21T07:29:40.044Z,4.43
2023-01-21T07:32:09.277Z,2.50
2023-01-21T07:34:38.198Z,3.47
2023-01-21T07:37:07.423Z,3.00
2023-01-21T07:39:34.244Z,4.60
2023-01-21T07:42:03.277Z,2.50
2023-01-21T07:44:30.058Z,3.40
2023-01-21T07:46:57.018Z,3.07
2023-01-21T07:49:25.908Z,4.50
2023-01-21T07:51:56.436Z,4.50
2023-01-21T07:54:23.226Z,3.60
2023-01-21T07:56:50.019Z,3.10
2023-01-21T07:59:17.168Z,3.43
2023-01-21T08:01:44.064Z,2.97
2023-01-21T08:04:10.936Z,3.43
2023-01-21T08:06:42.414Z,3.53
2023-01-21T08:09:09.844Z,4.77
2023-01-21T08:11:36.663Z,5.43
2023-01-21T08:14:03.366Z,4.80
2023-01-21T08:16:30.171Z,3.47
2023-01-21T08:18:56.932Z,4.40
2023-01-21T08:21:26.028Z,3.50
2023-01-21T08:23:52.830Z,8.20
2023-01-21T08:26:19.632Z,4.67
2023-01-21T08:28:46.445Z,3.20
2023-01-21T08:31:13.600Z,6.20
2023-01-21T08:33:40.519Z,3.30
2023-01-21T08:36:08.274Z,3.00
2023-01-21T08:38:35.037Z,3.37
2023-01-21T08:41:03.937Z,3.80
2023-01-21T08:43:30.709Z,4.50
2023-01-21T08:45:58.628Z,4.20
2023-01-21T08:48:25.544Z,4.20
2023-01-21T08:50:52.480Z,5.70
2023-01-21T08:53:19.428Z,3.50
2023-01-21T08:55:46.203Z,4.83
2023-01-21T08:58:13.033Z,6.17
2023-01-21T09:00:41.696Z,4.23
2023-01-21T09:03:08.796Z,4.97
2023-01-21T09:05:35.556Z,5.80
2023-01-21T09:08:02.413Z,6.17
2023-01-21T09:10:47.572Z,5.43
2023-01-21T09:13:16.385Z,6.43
2023-01-21T09:15:43.578Z,7.03
2023-01-21T09:18:12.634Z,7.23
2023-01-21T09:20:39.799Z,7.50
2023-01-21T09:23:24.279Z,7.37
2023-01-21T09:26:05.232Z,6.27
2023-01-21T09:28:36.777Z,7.07
2023-01-21T09:31:05.921Z,6.60
2023-01-21T09:33:36.047Z,7.07
2023-01-21T09:36:06.471Z,6.40
2023-01-21T09:38:34.562Z,7.47
2023-01-21T09:41:17.760Z,8.07
2023-01-21T09:43:49.693Z,8.37
2023-01-21T09:46:20.759Z,7.43
2023-01-21T09:48:47.925Z,9.30
2023-01-21T09:51:22.568Z,10.57
2023-01-21T09:53:51.218Z,8.83
2023-01-21T09:56:31.641Z,8.57
2023-01-21T09:59:04.019Z,9.27
2023-01-21T10:01:36.964Z,9.20
2023-01-21T10:04:25.688Z,6.97
2023-01-21T10:06:57.470Z,7.60
2023-01-21T10:09:39.397Z,7.13
2023-01-21T10:12:21.784Z,8.30
2023-01-21T10:15:08.248Z,7.80
2023-01-21T10:17:47.653Z,6.87
2023-01-21T10:20:26.958Z,8.90
2023-01-21T10:23:02.613Z,10.57
2023-01-21T10:25:34.994Z,7.00
2023-01-21T10:28:05.049Z,8.40
2023-01-21T10:30:44.631Z,8.70
2023-01-21T10:33:24.487Z,7.27
2023-01-21T10:36:23.125Z,8.00
2023-01-21T10:39:22.205Z,9.37
2023-01-21T10:42:14.380Z,9.47
2023-01-21T10:45:01.842Z,7.73
2023-01-21T10:47:37.531Z,8.60
2023-01-21T10:50:30.641Z,10.03
2023-01-21T10:53:23.623Z,12.63
2023-01-21T10:56:12.704Z,9.97
2023-01-21T10:58:42.380Z,8.60
2023-01-21T11:01:18.586Z,8.13
2023-01-21T11:03:53.548Z,15.67
2023-01-21T11:06:21.410Z,9.73
2023-01-21T11:08:54.720Z,11.80
2023-01-21T11:11:27.118Z,10.73
2023-01-21T11:13:54.800Z,11.53
2023-01-21T11:16:43.141Z,11.37
2023-01-21T11:19:12.782Z,10.23
2023-01-21T11:21:41.713Z,12.17
2023-01-21T11:24:23.611Z,13.37
2023-01-21T11:26:52.069Z,12.27
2023-01-21T11:29:20.097Z,18.63
2023-01-21T11:31:48.923Z,14.73
2023-01-21T11:34:20.246Z,15.73
2023-01-21T11:37:06.413Z,16.17
2023-01-21T11:39:40.588Z,22.30
2023-01-21T11:42:17.780Z,19.67
2023-01-21T11:45:07.215Z,16.00
2023-01-21T11:47:40.448Z,18.67
2023-01-21T11:50:34.820Z,19.73
2023-01-21T11:53:08.066Z,16.33
2023-01-21T11:55:38.139Z,20.33
2023-01-21T11:58:04.892Z,18.87
2023-01-21T12:00:31.774Z,21.07
2023-01-21T12:03:00.184Z,19.20
2023-01-21T12:05:33.677Z,20.20
2023-01-21T12:08:06.181Z,21.20
2023-01-21T12:10:34.545Z,24.77
2023-01-21T12:13:04.298Z,20.70
2023-01-21T12:16:03.619Z,22.27
2023-01-21T12:19:03.509Z,20.27
2023-01-21T12:21:49.653Z,28.37
2023-01-21T12:24:34.612Z,26.20
2023-01-21T12:27:24.330Z,22.67
2023-01-21T12:30:03.347Z,22.20
2023-01-21T12:32:33.829Z,19.10
2023-01-21T12:35:12.735Z,27.27
2023-01-21T12:37:49.942Z,18.27
2023-01-21T12:40:32.760Z,23.73
2023-01-21T12:43:15.526Z,24.70
2023-01-21T12:46:06.185Z,22.87
2023-01-21T12:48:38.643Z,21.13
2023-01-21T12:51:08.670Z,22.60
2023-01-21T12:53:52.312Z,23.77
2023-01-21T12:56:41.119Z,25.57
2023-01-21T12:59:10.061Z,27.37
2023-01-21T13:01:53.630Z,24.97
2023-01-21T13:04:44.439Z,24.37
2023-01-21T13:07:15.331Z,24.80
2023-01-21T13:10:23.898Z,24.57
2023-01-21T13:13:00.133Z,19.17
2023-01-21T13:15:34.281Z,27.63
2023-01-21T13:18:10.878Z,25.23
2023-01-21T13:20:41.872Z,28.33
2023-01-21T13:23:14.882Z,23.10
2023-01-21T13:25:53.678Z,24.23
2023-01-21T13:28:31.948Z,26.43
2023-01-21T13:31:01.641Z,24.03
2023-01-21T13:33:50.050Z,23.10
2023-01-21T13:36:52.343Z,26.20
2023-01-21T13:39:40.444Z,26.97
2023-01-21T13:42:19.776Z,25.93
2023-01-21T13:45:14.033Z,21.90
2023-01-21T13:48:09.946Z,24.23
2023-01-21T13:50:58.053Z,28.63
2023-01-21T13:53:35.326Z,29.33
2023-01-21T13:56:40.709Z,26.37
2023-01-21T13:59:42.410Z,26.07
2023-01-21T14:02:21.268Z,23.60
2023-01-21T14:05:12.174Z,29.43
2023-01-21T14:07:50.281Z,29.13
2023-01-21T14:10:47.875Z,30.83
2023-01-21T14:13:50.781Z,29.10
2023-01-21T14:16:17.565Z,29.00
2023-01-21T14:18:47.166Z,27.77
2023-01-21T14:21:24.622Z,30.13
2023-01-21T14:23:57.451Z,31.20
2023-01-21T14:26:38.599Z,27.73
2023-01-21T14:29:26.886Z,31.40
2023-01-21T14:32:01.951Z,32.33
2023-01-21T14:34:38.500Z,31.43
2023-01-21T14:37:37.090Z,32.80
2023-01-21T14:40:19.941Z,32.33
2023-01-21T14:42:50.796Z,33.93
2023-01-21T14:45:22.174Z,34.13
2023-01-21T14:47:54.342Z,34.83
2023-01-21T14:50:43.115Z,30.97
2023-01-21T14:53:15.476Z,34.60
2023-01-21T14:55:42.237Z,37.63
2023-01-21T14:58:22.387Z,33.93
2023-01-21T15:00:51.489Z,39.07
2023-01-21T15:03:27.589Z,36.20
2023-01-21T15:06:02.358Z,33.03
2023-01-21T15:08:45.605Z,33.77
2023-01-21T15:11:33.108Z,28.83
2023-01-21T15:14:07.343Z,35.87
2023-01-21T15:16:36.315Z,34.53
2023-01-21T15:19:12.639Z,35.13
2023-01-21T15:21:42.905Z,37.03
2023-01-21T15:24:35.644Z,32.97
2023-01-21T15:27:23.774Z,32.27
2023-01-21T15:29:53.660Z,33.83
2023-01-21T15:32:48.790Z,38.40
2023-01-21T15:35:22.479Z,37.10
2023-01-21T15:38:01.370Z,38.70
2023-01-21T15:40:34.677Z,32.67
2023-01-21T15:43:11.499Z,39.50
2023-01-21T15:45:53.652Z,35.77
2023-01-21T15:48:41.617Z,38.00
2023-01-21T15:51:26.757Z,40.63
2023-01-21T15:54:18.788Z,41.70
2023-01-21T15:56:51.115Z,46.67
2023-01-21T15:59:44.273Z,38.40
2023-01-21T16:02:24.726Z,51.77
2023-01-21T16:05:08.712Z,49.10
2023-01-21T16:07:46.511Z,46.27
2023-01-21T16:10:28.389Z,45.80
2023-01-21T16:13:32.130Z,39.33
2023-01-21T16:16:08.881Z,45.13
2023-01-21T16:18:54.547Z,44.63
2023-01-21T16:21:31.384Z,48.30
2023-01-21T16:24:01.665Z,50.07
2023-01-21T16:26:32.867Z,49.27
2023-01-21T16:28:59.954Z,50.90
2023-01-21T16:31:27.018Z,47.93
2023-01-21T16:33:56.423Z,46.87
2023-01-21T16:36:23.205Z,47.27
2023-01-21T16:38:50.050Z,51.90
2023-01-21T16:41:25.867Z,45.60
2023-01-21T16:44:03.785Z,45.80
2023-01-21T16:46:37.557Z,52.97
2023-01-21T16:49:07.138Z,48.33
2023-01-21T16:51:40.100Z,52.00
2023-01-21T16:54:19.094Z,46.00
2023-01-21T16:56:51.319Z,52.03
2023-01-21T16:59:22.797Z,52.60
2023-01-21T17:01:49.700Z,51.90
2023-01-21T17:04:19.126Z,52.20
2023-01-21T17:06:48.352Z,49.60
2023-01-21T17:09:41.448Z,53.63
2023-01-21T17:12:11.807Z,54.80
2023-01-21T17:14:38.615Z,52.17
2023-01-21T17:17:07.099Z,48.77
2023-01-21T17:19:35.536Z,49.97
2023-01-21T17:22:04.512Z,47.20
2023-01-21T17:24:37.811Z,49.73
2023-01-21T17:27:20.155Z,48.27
2023-01-21T17:29:50.056Z,47.80
2023-01-21T17:32:33.356Z,47.70
2023-01-21T17:35:17.513Z,50.80
2023-01-21T17:37:53.322Z,50.53
2023-01-21T17:40:27.905Z,50.83
2023-01-21T17:42:54.916Z,47.03
2023-01-21T17:45:29.460Z,51.33
2023-01-21T17:48:14.887Z,50.00
2023-01-21T17:50:45.267Z,53.17
2023-01-21T17:53:22.321Z,56.83
2023-01-21T17:56:05.753Z,65.90
2023-01-21T17:58:32.528Z,52.57
2023-01-21T18:01:03.153Z,52.97
2023-01-21T18:03:30.008Z,51.73
2023-01-21T18:05:58.969Z,50.50
2023-01-21T18:08:25.803Z,52.50
2023-01-21T18:10:54.809Z,49.37
2023-01-21T18:13:24.232Z,57.87
2023-01-21T18:15:54.283Z,55.93
2023-01-21T18:18:27.562Z,53.17
2023-01-21T18:20:54.673Z,53.50
2023-01-21T18:23:21.502Z,54.73
2023-01-21T18:25:51.314Z,58.27
2023-01-21T18:28:28.599Z,51.00
2023-01-21T18:30:59.592Z,53.20
2023-01-21T18:33:29.505Z,59.57
2023-01-21T18:35:56.319Z,56.30
2023-01-21T18:38:27.654Z,48.30
2023-01-21T18:41:01.372Z,45.27
2023-01-21T18:43:28.185Z,50.57
2023-01-21T18:45:54.999Z,54.23
2023-01-21T18:48:29.936Z,46.53
2023-01-21T18:50:56.794Z,46.43
2023-01-21T18:53:23.655Z,50.50
2023-01-21T18:55:53.924Z,49.73
2023-01-21T18:58:22.886Z,45.90
2023-01-21T19:00:51.879Z,48.47
2023-01-21T19:03:18.919Z,51.73
2023-01-21T19:05:49.284Z,48.30
2023-01-21T19:08:27.643Z,48.80
2023-01-21T19:10:55.066Z,55.00
2023-01-21T19:13:47.605Z,54.13
2023-01-21T19:16:19.914Z,47.73
2023-01-21T19:18:46.864Z,56.70
2023-01-21T19:21:13.777Z,53.50
2023-01-21T19:23:40.650Z,46.77
2023-01-21T19:26:07.463Z,52.17
2023-01-21T19:28:36.749Z,49.83
2023-01-21T19:31:03.756Z,49.93
2023-01-21T19:33:30.567Z,47.97
2023-01-21T19:36:05.260Z,49.30
2023-01-21T19:38:32.041Z,52.27
2023-01-21T19:40:58.896Z,45.67
2023-01-21T19:43:28.493Z,50.87
2023-01-21T19:45:55.887Z,50.57
2023-01-21T19:48:22.688Z,51.77
2023-01-21T19:50:51.610Z,55.33
2023-01-21T19:53:23.719Z,50.47
2023-01-21T19:55:53.076Z,53.00
2023-01-21T19:58:24.073Z,55.80
2023-01-21T20:00:51.718Z,51.00
2023-01-21T20:03:21.165Z,52.90
2023-01-21T20:05:55.246Z,49.40
2023-01-21T20:08:23.582Z,50.40
2023-01-21T20:10:53.171Z,52.93
2023-01-21T20:13:20.154Z,49.70
2023-01-21T20:15:47.819Z,48.27
2023-01-21T20:18:18.124Z,42.63
2023-01-21T20:20:48.038Z,52.70
2023-01-21T20:23:17.750Z,52.37
2023-01-21T20:25:45.419Z,52.27
2023-01-21T20:28:22.106Z,53.70
2023-01-21T20:30:49.544Z,45.03
2023-01-21T20:33:18.220Z,58.23
2023-01-21T20:35:47.727Z,51.97
2023-01-21T20:38:15.397Z,56.07
2023-01-21T20:40:42.283Z,59.63
2023-01-21T20:43:10.002Z,55.40
2023-01-21T20:45:45.039Z,56.77
2023-01-21T20:48:18.470Z,56.37
2023-01-21T20:50:45.317Z,52.10
2023-01-21T20:53:12.217Z,57.73
2023-01-21T20:55:39.932Z,54.20
2023-01-21T20:58:07.103Z,60.83
2023-01-21T21:00:34.738Z,59.03
2023-01-21T21:03:01.952Z,60.17
2023-01-21T21:05:28.898Z,61.97
2023-01-21T21:07:55.816Z,59.67
2023-01-21T21:10:22.635Z,62.37
2023-01-21T21:12:49.742Z,56.30
2023-01-21T21:15:17.127Z,58.77
2023-01-21T21:17:49.245Z,65.67
2023-01-21T21:20:23.049Z,67.87
2023-01-21T21:22:52.365Z,60.50
2023-01-21T21:25:21.185Z,64.07
2023-01-21T21:27:50.249Z,63.30
2023-01-21T21:30:19.308Z,61.90
2023-01-21T21:32:46.223Z,67.83
2023-01-21T21:35:22.128Z,65.80
2023-01-21T21:37:49.119Z,65.90
2023-01-21T21:40:16.013Z,58.27
2023-01-21T21:43:01.348Z,64.13
2023-01-21T21:45:28.134Z,67.13
2023-01-21T21:48:15.800Z,60.13
2023-01-21T21:50:42.677Z,58.53
2023-01-21T21:53:09.524Z,57.97
2023-01-21T21:55:37.481Z,55.83
2023-01-21T21:58:05.884Z,56.27
2023-01-21T22:00:32.675Z,61.00
2023-01-21T22:03:00.014Z,63.07
2023-01-21T22:05:26.947Z,58.87
2023-01-21T22:07:56.307Z,61.10
2023-01-21T22:10:23.084Z,56.93
2023-01-21T22:12:52.153Z,54.13
2023-01-21T22:15:24.083Z,65.47
2023-01-21T22:17:50.902Z,53.07
2023-01-21T22:20:19.914Z,49.90
2023-01-21T22:22:46.706Z,50.77
2023-01-21T22:25:13.544Z,51.80
2023-01-21T22:27:40.327Z,53.03
2023-01-21T22:30:07.807Z,54.87
2023-01-21T22:32:37.121Z,55.57
2023-01-21T22:35:04.076Z,54.93
2023-01-21T22:37:33.059Z,54.97
2023-01-21T22:40:02.358Z,53.63
2023-01-21T22:42:31.356Z,47.47
2023-01-21T22:45:00.376Z,47.10
2023-01-21T22:47:31.964Z,49.33
2023-01-21T22:50:00.843Z,47.77
2023-01-21T22:52:28.674Z,51.20
2023-01-21T22:54:57.574Z,51.10
2023-01-21T22:57:24.350Z,44.60
2023-01-21T22:59:53.336Z,48.47
2023-01-21T23:02:22.184Z,47.93
2023-01-21T23:04:51.088Z,42.23
2023-01-21T23:07:17.879Z,45.93
2023-01-21T23:09:46.869Z,45.20
2023-01-21T23:12:18.720Z,48.80
2023-01-21T23:14:46.270Z,52.70
2023-01-21T23:17:13.905Z,47.33
2023-01-21T23:19:40.748Z,48.87
2023-01-21T23:22:08.572Z,46.87
2023-01-21T23:24:37.561Z,46.93
2023-01-21T23:27:04.399Z,48.83
2023-01-21T23:29:31.239Z,50.60
2023-01-21T23:32:00.807Z,51.07
2023-01-21T23:34:27.720Z,48.10
2023-01-21T23:36:54.473Z,53.93
2023-01-21T23:39:21.257Z,47.87
2023-01-21T23:41:48.034Z,51.30
2023-01-21T23:44:14.814Z,45.60
2023-01-21T23:46:43.187Z,50.87
2023-01-21T23:49:10.004Z,50.70
2023-01-21T23:51:36.836Z,54.00
2023-01-21T23:54:03.747Z,55.13
2023-01-21T23:56:30.542Z,55.33
2023-01-21T23:58:57.333Z,57.83
